Wednesday, September 19, 2018, 2:40 PM EDT
Back to Local

KLFI, Langley Air Force Base

Location: Hampton, VA, United States Lat: 37.083
Local Time: 2:40 PM EDT (18:40 GMT) Lon: -76.35
Time Zone: US/Eastern Elev: 9 ft

Show me the last for .
Show Decoded

2018-09-19 13:56 METAR KLFI 191756Z 02008KT 8SM FEW032 29/22 A2992 RMK AO2A SLP138 T02920216
                 10292 20230 50000 $ =
2018-09-19 12:56 METAR KLFI 191656Z 35008KT 8SM FEW030 28/22 A2993 RMK AO2A SLP142 T02840219 $ =
2018-09-19 11:56 METAR KLFI 191556Z AUTO 01009KT 8SM CLR 28/22 A2992 RMK AO2 SLP138 T02790219 $ =
2018-09-19 10:56 METAR KLFI 191456Z AUTO 34008KT 9SM CLR 27/21 A2992 RMK AO2 SLP138 52013 =
2018-09-19 09:56 METAR KLFI 191356Z 33008KT 9SM CLR 26/21 A2991 RMK AO2A SLP135 =
2018-09-19 08:56 METAR KLFI 191256Z AUTO 34008KT 9SM CLR 25/21 A2989 RMK AO2 SLP128 T02460209 $ =
2018-09-19 07:56 METAR KLFI 191156Z AUTO 32008KT 9SM CLR 23/21 A2988 RMK AO2 SLP125 70004
                 T02290208 10234 20218 52013 $ =
2018-09-19 06:56 METAR KLFI 191056Z AUTO 33004KT 10SM CLR 22/20 A2986 RMK AO2 SLP118 T02190202 $
                 =
2018-09-19 05:56 METAR KLFI 190956Z AUTO 33007KT 10SM CLR 22/20 A2985 RMK AO2 SLP115 T02220203 $
                 =
2018-09-19 04:56 METAR KLFI 190856Z AUTO 34010KT 10SM CLR 22/20 A2984 RMK AO2 SLP111 T02240203
                 53006 $ =
2018-09-19 03:56 METAR KLFI 190756Z AUTO 34009KT 10SM SCT070 23/21 A2983 RMK AO2 SLP108 T02300205
                 $ =
2018-09-19 02:56 METAR KLFI 190656Z AUTO 33009KT 10SM OVC065 23/21 A2983 RMK AO2 SLP108 T02330208
                 $ =
2018-09-19 01:56 METAR KLFI 190556Z AUTO 33008KT 10SM CLR 23/22 A2982 RMK AO2 SLP105 60000
                 T02310217 10239 20229 55001 $ =
2018-09-19 00:56 METAR KLFI 190456Z AUTO 29005KT 10SM FEW100 23/23 A2982 RMK AO2 SLP105 T02340227
                 403060229 $ =
2018-09-18 23:56 METAR KLFI 190356Z AUTO 29004KT 10SM OVC065 23/23 A2983 RMK AO2 SLP108 T02310226
                 $ =
2018-09-18 22:56 METAR KLFI 190256Z AUTO 29005KT 10SM BKN055 23/22 A2983 RMK AO2 SLP108 60000
                 T02300218 51013 $ =
2018-09-18 21:56 METAR KLFI 190156Z AUTO 36013G17KT 10SM SCT046 OVC060 24/22 A2982 RMK AO2 SLP105
                 T02390218 $ =
2018-09-18 20:56 METAR KLFI 190056Z AUTO 34013G18KT 10SM SCT013 BKN035 23/22 A2981 RMK AO2
                 RAE13RAB31E46 SLP101 P0000 T02340222 $ =
2018-09-18 20:46 METAR KLFI 190046Z AUTO 34013G21KT 10SM BKN013 BKN032 23/22 A2981 RMK AO2
                 RAE13RAB31E46 SLP101 $ =
2018-09-18 20:31 METAR KLFI 190031Z AUTO 33013G19KT 9SM -RA BKN013 OVC020 24/22 A2980 RMK AO2
                 RAE13RAB31 SLP098 $ =
2018-09-18 20:13 METAR KLFI 190013Z AUTO 33011KT 10SM BKN012 OVC018 24/23 A2979 RMK AO2 RAE13
                 SLP094 $ =
2018-09-18 20:11 METAR KLFI 190011Z AUTO 32010KT 10SM -RA BKN012 OVC018 24/23 A2979 RMK AO2
                 SLP094 $ =
2018-09-18 19:56 METAR KLFI 182356Z 32010G16KT 10SM -RA OVC015 24/23 A2979 RMK AO2A RAE01RAB51
                 SLP094 P0000 60004 T02380231 10306 20238 52012 $ =
2018-09-18 19:31 METAR KLFI 182331Z AUTO 32009KT 10SM BKN011 BKN036 OVC060 24/24 A2978 RMK AO2
                 RAE01 CIG 011V023 BKN011 V SCT SLP091 $ =
2018-09-18 19:01 METAR KLFI 182301Z AUTO 30004KT 9SM BKN023 OVC029 24/24 A2978 RMK AO2 RAE01
                 SLP091 $ =
2018-09-18 18:56 METAR KLFI 182256Z 27005KT 8SM -RA BKN023 OVC029 24/24 A2978 RMK AO2A RAE31RAB49
                 CIG 023V030 SLP091 P0003 T02430238 $ =
2018-09-18 18:49 METAR KLFI 182249Z 28006KT 10SM -RA SCT022 OVC029 24/24 A2977 RMK AO2A
                 RAE31RAB49 CIG 027V034 SLP088 $ =
2018-09-18 18:31 METAR KLFI 182231Z AUTO 24007KT 7SM BKN033 OVC042 24/24 A2977 RMK AO2 RAE31
                 SLP088 $ =
2018-09-18 17:56 METAR KLFI 182156Z COR AUTO 29011KT 7SM -RA SCT025 BKN060 OVC070 25/23 A2977 RMK
                 AO2 RAB42 SLP088 P0001 T02540230 $ COR 2209 =
2018-09-18 17:42 METAR KLFI 182142Z 26010KT 10SM -RA SCT025 OVC070 27/22 A2976 RMK AO2A RAB42
                 SLP084 $
2018-09-18 16:56 METAR KLFI 182056Z COR 25011KT 10SM SCT080 28/22 A2976 RMK AO2A SLP084 T02790216
                 55006 $ COR 2058 =
2018-09-18 15:56 METAR KLFI 181956Z AUTO 25012KT 10SM OVC070 29/22 A2975 RMK AO2 SLP081 T02870219
                 $ =
2018-09-18 14:56 METAR KLFI 181856Z 26014KT 10SM BKN040 BKN060 BKN070 29/22 A2976 RMK AO2A SLP084
                 T02890221 $ =

Support USWX by starting your Amazon purchase here.